Time;durP1;ratioP1;P1;durP2;ratioP2;P2;SDS_P1;SDS_P2;PMS_P1;PMS_P2;Temp;Humidity;BMP_temperature;BMP_pressure;BME280_temperature;BME280_humidity;BME280_pressure;Samples;Min_cycle;Max_cycle;Signal;HPM_P1;HPM_P2
2021/12/05 00:23:30;;;;;;;23.02;14.57;;;;;;;3.18;70.39;97209.44;5010599;28;20036;-64
2021/12/05 00:25:59;;;;;;;20.20;13.93;;;;;;;3.14;68.91;97208.88;5017263;28;20028;-65
2021/12/05 00:37:19;;;;;;;23.25;15.00;;;;;;;3.33;71.77;97241.50;4994373;28;20048;-64
2021/12/05 01:15:27;;;;;;;22.52;14.88;;;;;;;3.36;72.57;97202.69;5018110;28;20696;-64
2021/12/05 01:18:01;;;;;;;24.98;15.40;;;;;;;3.34;72.55;97194.31;5001445;28;20466;-64
2021/12/05 01:20:30;;;;;;;24.05;14.95;;;;;;;3.25;71.98;97208.78;5020489;28;20056;-64
2021/12/05 01:23:11;;;;;;;24.10;15.40;;;;;;;3.14;72.76;97214.03;5022556;28;20033;-64
2021/12/05 01:25:54;;;;;;;25.67;15.82;;;;;;;2.91;74.03;97215.19;5013404;28;20573;-64
2021/12/05 01:33:42;;;;;;;21.60;13.73;;;;;;;2.60;72.48;97213.44;5015867;28;20074;-65
2021/12/05 01:36:18;;;;;;;26.52;15.80;;;;;;;2.76;71.24;97210.41;5017610;28;20037;-65
2021/12/05 01:39:39;;;;;;;22.58;15.02;;;;;;;2.73;71.82;97209.84;5015177;28;20030;-64
2021/12/05 02:11:48;;;;;;;24.40;15.30;;;;;;;3.04;72.43;97192.63;5018270;28;20680;-64
2021/12/05 02:43:10;;;;;;;22.15;15.27;;;;;;;2.80;73.30;97155.28;5015697;28;20072;-64
2021/12/05 02:45:39;;;;;;;22.75;15.77;;;;;;;2.91;72.87;97153.56;5029202;28;20040;-64
2021/12/05 02:48:06;;;;;;;25.95;15.77;;;;;;;2.90;72.32;97155.28;5005196;28;20136;-62
2021/12/05 02:50:33;;;;;;;22.73;15.23;;;;;;;2.95;72.66;97166.00;5016951;28;20025;-64
2021/12/05 02:53:09;;;;;;;23.67;15.65;;;;;;;3.07;72.35;97146.97;5014345;28;20048;-63
2021/12/05 02:55:41;;;;;;;26.55;16.75;;;;;;;2.98;72.78;97159.78;5014002;28;20072;-64
2021/12/05 03:01:10;;;;;;;24.30;17.20;;;;;;;3.10;73.38;97151.00;5007918;28;20040;-64
2021/12/05 03:03:37;;;;;;;25.55;15.75;;;;;;;3.17;73.21;97159.00;5013406;28;20030;-64
2021/12/05 03:06:13;;;;;;;23.00;16.40;;;;;;;2.77;73.23;97106.75;5020319;28;20163;-64
2021/12/05 03:08:39;;;;;;;25.23;16.25;;;;;;;3.05;73.38;97150.63;5015729;28;20040;-64
2021/12/05 03:11:05;;;;;;;24.00;15.75;;;;;;;3.15;73.23;97145.47;5019242;28;20029;-63
2021/12/05 03:13:34;;;;;;;23.77;15.75;;;;;;;3.24;73.78;97153.19;5019345;28;20781;-63
2021/12/05 03:15:59;;;;;;;25.23;16.38;;;;;;;3.13;73.24;97157.66;5015045;28;20029;-63
2021/12/05 03:18:25;;;;;;;23.10;16.50;;;;;;;3.04;74.66;97159.25;5020425;28;20130;-63
2021/12/05 03:20:51;;;;;;;24.77;16.35;;;;;;;2.77;74.04;97119.59;5021524;28;20025;-63
2021/12/05 03:23:16;;;;;;;23.70;16.33;;;;;;;3.03;74.37;97147.34;5020084;28;20029;-63
2021/12/05 03:25:42;;;;;;;24.85;16.15;;;;;;;2.95;74.63;97145.44;5020062;28;20048;-63
2021/12/05 03:28:08;;;;;;;24.52;16.17;;;;;;;3.03;74.37;97145.63;5020134;28;20042;-64
2021/12/05 03:30:33;;;;;;;24.48;17.13;;;;;;;2.88;74.40;97142.63;5020404;28;20439;-64
2021/12/05 03:32:59;;;;;;;23.20;16.17;;;;;;;2.65;75.88;97144.56;5020644;28;20399;-63
2021/12/05 03:35:27;;;;;;;23.23;15.88;;;;;;;2.69;76.18;97145.13;5018288;28;20059;-63
2021/12/05 03:37:53;;;;;;;22.65;16.20;;;;;;;2.82;76.47;97155.16;5017250;28;20553;-63
2021/12/05 03:40:22;;;;;;;24.73;17.10;;;;;;;2.66;76.22;97148.75;5001158;28;20033;-63
2021/12/05 03:42:48;;;;;;;22.90;16.13;;;;;;;2.68;77.23;97153.75;5022137;28;20052;-64
2021/12/05 03:45:19;;;;;;;24.33;15.82;;;;;;;2.76;76.04;97143.66;5021074;28;20127;-63
2021/12/05 03:47:45;;;;;;;22.27;16.23;;;;;;;2.83;76.36;97146.50;5015427;28;20076;-64
2021/12/05 03:50:12;;;;;;;23.45;16.38;;;;;;;2.73;76.86;97132.84;5021256;28;20041;-64
2021/12/05 03:52:39;;;;;;;23.08;15.70;;;;;;;2.71;76.37;97145.00;5001532;28;20057;-63
2021/12/05 03:55:06;;;;;;;23.17;14.52;;;;;;;2.82;76.03;97145.69;5019775;28;20056;-64
2021/12/05 03:57:32;;;;;;;21.55;15.45;;;;;;;2.86;75.81;97136.78;5011500;28;20052;-63
2021/12/05 03:59:57;;;;;;;22.40;15.55;;;;;;;2.76;77.47;97137.72;5016945;28;20464;-63
2021/12/05 04:02:23;;;;;;;22.20;15.73;;;;;;;2.84;76.32;97133.53;5019940;28;20039;-63
2021/12/05 04:04:50;;;;;;;21.20;15.13;;;;;;;2.39;76.83;97066.44;5011874;28;20029;-63
2021/12/05 04:07:16;;;;;;;23.48;15.05;;;;;;;2.59;77.66;97129.72;5019088;28;20025;-63
2021/12/05 04:09:42;;;;;;;23.20;15.15;;;;;;;2.29;77.82;97107.47;5017951;28;20026;-63
2021/12/05 04:12:09;;;;;;;22.65;15.35;;;;;;;2.44;77.58;97141.25;5022358;28;20459;-64
2021/12/05 04:14:43;;;;;;;24.05;14.55;;;;;;;2.38;77.16;97144.34;5022270;28;20029;-64
2021/12/05 04:17:11;;;;;;;23.13;15.20;;;;;;;2.23;77.10;97129.31;5019413;28;20068;-63
2021/12/05 04:19:38;;;;;;;25.75;16.02;;;;;;;2.21;77.43;97145.75;5004716;28;20535;-63
2021/12/05 04:22:04;;;;;;;21.92;15.30;;;;;;;2.11;78.49;97141.38;5019389;28;20120;-64
2021/12/05 04:24:30;;;;;;;24.02;15.68;;;;;;;2.05;79.08;97143.66;5019871;28;20026;-63
2021/12/05 04:26:56;;;;;;;23.98;16.10;;;;;;;2.03;78.30;97145.53;5018672;28;20619;-64
2021/12/05 04:29:21;;;;;;;22.40;15.38;;;;;;;1.73;77.67;97100.97;5020741;28;20098;-63
2021/12/05 04:31:47;;;;;;;23.85;16.30;;;;;;;1.41;77.79;97048.09;5019074;28;20368;-62
2021/12/05 04:34:13;;;;;;;22.85;15.43;;;;;;;2.16;77.74;97148.72;5000741;28;20029;-63
2021/12/05 04:36:42;;;;;;;25.92;14.90;;;;;;;2.12;77.20;97139.66;5023864;28;20546;-64
2021/12/05 04:39:09;;;;;;;21.48;14.70;;;;;;;2.23;75.79;97138.75;5002208;28;20423;-63
2021/12/05 04:41:34;;;;;;;25.67;13.45;;;;;;;2.28;74.43;97123.78;5022104;28;20776;-63
2021/12/05 04:44:01;;;;;;;21.33;13.07;;;;;;;2.24;73.96;97122.41;5020415;28;20036;-63
2021/12/05 04:46:27;;;;;;;20.92;12.85;;;;;;;2.29;73.71;97126.22;5022416;28;20063;-63
2021/12/05 04:48:54;;;;;;;17.08;11.70;;;;;;;2.42;72.46;97113.16;5000577;28;20249;-63
2021/12/05 04:51:23;;;;;;;16.67;10.43;;;;;;;2.35;72.28;97101.00;5001984;28;20029;-63
2021/12/05 04:53:48;;;;;;;17.73;11.52;;;;;;;2.47;72.69;97120.50;5019354;28;20021;-63
2021/12/05 04:56:14;;;;;;;15.40;10.07;;;;;;;2.19;71.02;97051.00;5017578;28;20553;-63
2021/12/05 04:58:40;;;;;;;18.52;11.23;;;;;;;2.52;71.63;97110.66;5018483;28;20118;-63
2021/12/05 05:01:06;;;;;;;18.70;11.30;;;;;;;2.27;70.87;97070.88;5003285;28;20053;-62
2021/12/05 05:03:33;;;;;;;17.65;11.27;;;;;;;2.48;70.95;97111.84;5017260;28;20079;-64
2021/12/05 05:06:09;;;;;;;14.95;9.50;;;;;;;2.54;70.92;97113.06;4997757;28;20036;-63
2021/12/05 05:08:35;;;;;;;17.85;11.70;;;;;;;2.49;72.10;97103.19;5017558;28;20492;-63
2021/12/05 05:11:04;;;;;;;21.17;11.32;;;;;;;2.50;71.76;97099.69;5017422;28;20033;-63
2021/12/05 05:13:30;;;;;;;18.27;10.88;;;;;;;1.92;71.53;97006.25;5023556;28;20479;-63
2021/12/05 05:15:56;;;;;;;16.02;10.43;;;;;;;2.54;72.99;97108.75;5020521;28;20040;-63
2021/12/05 05:18:24;;;;;;;20.60;13.45;;;;;;;2.19;74.65;97057.88;5014805;28;20064;-63
2021/12/05 05:20:59;;;;;;;17.63;11.45;;;;;;;2.33;74.19;97093.44;5016190;28;20445;-63
2021/12/05 05:26:36;;;;;;;19.20;11.98;;;;;;;2.45;76.13;97100.09;5017345;28;20038;-63
2021/12/05 05:50:36;;;;;;;16.90;11.50;;;;;;;2.31;73.93;97083.28;5020420;28;20579;-63
2021/12/05 05:53:03;;;;;;;16.33;10.68;;;;;;;2.44;74.84;97100.22;5019157;28;20036;-62
2021/12/05 05:55:29;;;;;;;18.25;11.55;;;;;;;2.07;74.65;97055.41;5018525;28;20029;-65
2021/12/05 06:00:39;;;;;;;15.85;10.95;;;;;;;2.56;75.15;97116.34;5015213;28;20037;-63
2021/12/05 06:03:21;;;;;;;17.23;11.75;;;;;;;2.48;75.57;97112.66;5016296;28;20098;-62
2021/12/05 06:06:11;;;;;;;18.58;11.80;;;;;;;2.35;75.25;97114.63;5012856;28;20030;-63
2021/12/05 06:08:37;;;;;;;;;;;;;;;2.41;75.60;97139.78;5009078;28;20033;-62
2021/12/05 06:11:11;;;;;;;18.80;12.30;;;;;;;2.44;75.33;97131.00;5049356;28;19916;-63
2021/12/05 06:13:38;;;;;;;22.83;14.57;;;;;;;2.29;75.53;97133.09;5012224;28;20099;-63
2021/12/05 06:16:08;;;;;;;20.15;13.57;;;;;;;2.17;76.23;97121.31;5017087;28;20044;-63
2021/12/05 06:18:33;;;;;;;;;;;;;;;2.18;76.25;97116.06;5016312;28;20033;-63
2021/12/05 06:20:59;;;;;;;21.60;13.52;;;;;;;2.01;76.98;97112.34;5017991;28;19967;-63
2021/12/05 06:23:25;;;;;;;19.70;13.48;;;;;;;2.13;76.82;97100.22;5014046;28;20361;-63
2021/12/05 06:25:51;;;;;;;19.35;13.70;;;;;;;2.19;77.12;97106.59;5013937;28;20029;-63
2021/12/05 06:28:24;;;;;;;23.33;13.68;;;;;;;2.23;76.54;97110.56;5010237;28;20097;-63
2021/12/05 06:39:30;;;;;;;20.98;13.60;;;;;;;1.75;76.57;97093.16;5017476;28;20040;-63
2021/12/05 06:47:11;;;;;;;25.98;15.63;;;;;;;1.52;78.50;97147.13;5017725;28;20545;-63
2021/12/05 06:49:36;;;;;;;25.83;16.15;;;;;;;1.63;78.49;97151.38;5004692;28;20017;-63
2021/12/05 06:52:02;;;;;;;25.00;15.93;;;;;;;1.50;79.05;97139.53;5021251;28;20044;-63
2021/12/05 06:54:28;;;;;;;22.05;15.30;;;;;;;1.53;78.84;97147.00;5018969;28;21865;-62
2021/12/05 06:56:53;;;;;;;24.17;15.82;;;;;;;1.34;79.84;97139.16;5022328;28;20108;-63
2021/12/05 06:59:19;;;;;;;26.10;15.30;;;;;;;1.26;80.32;97146.63;5022609;28;20026;-62
2021/12/05 07:01:45;;;;;;;22.05;15.32;;;;;;;1.39;80.05;97133.66;5004876;28;20035;-62
2021/12/05 07:06:54;;;;;;;23.98;14.73;;;;;;;1.48;80.19;97140.63;5047581;28;20026;-63
2021/12/05 07:09:21;;;;;;;20.98;14.43;;;;;;;1.41;80.05;97129.25;5018651;28;20399;-63
2021/12/05 07:40:37;;;;;;;15.48;10.05;;;;;;;2.26;75.01;97118.81;5019643;28;20099;-62
2021/12/05 07:43:08;;;;;;;15.68;11.27;;;;;;;2.35;75.22;97126.66;5037861;28;20033;-63
2021/12/05 07:45:43;;;;;;;16.40;11.40;;;;;;;2.46;74.80;97126.53;5016175;28;20079;-63
2021/12/05 07:48:16;;;;;;;16.83;10.73;;;;;;;1.99;75.08;97059.56;5022765;28;20062;-62
2021/12/05 07:50:54;;;;;;;16.20;11.18;;;;;;;2.25;74.80;97098.41;5029701;28;20072;-63
2021/12/05 07:53:29;;;;;;;15.77;10.52;;;;;;;2.47;74.70;97125.63;5015722;28;20549;-63
2021/12/05 07:56:01;;;;;;;16.25;10.60;;;;;;;2.56;75.27;97136.84;5021762;28;20029;-62
2021/12/05 07:58:48;;;;;;;16.20;11.10;;;;;;;2.45;75.03;97132.63;5018099;28;20028;-63
2021/12/05 08:15:39;;;;;;;17.80;9.90;;;;;;;2.36;75.50;97136.78;5016621;28;20083;-62
2021/12/05 08:17:39;;;;;;;17.13;10.13;;;;;;;2.43;76.51;97143.03;5022195;28;20542;-62
2021/12/05 08:20:07;;;;;;;13.77;10.02;;;;;;;2.38;75.66;97137.47;5014399;28;20032;-63
2021/12/05 08:22:32;;;;;;;16.52;10.35;;;;;;;2.18;76.22;97092.16;5022183;28;20476;-63
2021/12/05 08:25:08;;;;;;;15.38;10.18;;;;;;;2.47;75.85;97148.72;5020088;28;20048;-63
2021/12/05 08:27:33;;;;;;;15.05;9.48;;;;;;;2.44;76.07;97151.53;5014825;28;20460;-63
2021/12/05 08:30:06;;;;;;;15.75;10.85;;;;;;;2.40;76.25;97142.47;5016596;28;20029;-62
2021/12/05 08:32:46;;;;;;;14.18;9.60;;;;;;;2.52;75.20;97148.31;5014305;28;20274;-62
2021/12/05 08:35:25;;;;;;;14.98;9.88;;;;;;;2.57;75.52;97146.97;5014655;28;20032;-62
2021/12/05 08:45:59;;;;;;;15.23;10.05;;;;;;;2.34;75.96;97087.38;5005040;28;20418;-63
2021/12/05 09:23:03;;;;;;;17.00;11.48;;;;;;;2.56;76.41;97088.09;4982786;28;20799;-62
2021/12/05 09:24:39;;;;;;;21.88;14.32;;;;;;;2.46;75.37;97088.06;4973987;28;20045;-63
2021/12/05 10:38:19;;;;;;;20.70;13.05;;;;;;;3.34;72.33;97085.56;4982158;28;20042;-62
2021/12/05 10:40:47;;;;;;;;;;;;;;;3.49;72.58;97091.09;4978087;28;20042;-66
2021/12/05 10:43:16;;;;;;;19.42;11.88;;;;;;;3.36;71.34;97052.84;4970255;28;20302;-66
2021/12/05 10:45:43;;;;;;;14.45;9.45;;;;;;;3.69;70.21;97086.75;5011535;28;20026;-65
2021/12/05 10:48:19;;;;;;;15.43;10.30;;;;;;;3.51;69.88;97036.06;4979531;28;20096;-66
2021/12/05 10:50:50;;;;;;;17.42;11.07;;;;;;;3.65;70.26;97069.03;4959319;28;20371;-66
2021/12/05 10:53:40;;;;;;;15.02;9.23;;;;;;;3.74;68.77;97077.69;4994849;28;20038;-65
2021/12/05 10:56:11;;;;;;;13.73;8.82;;;;;;;3.55;68.52;97032.25;4978314;28;20029;-66
2021/12/05 10:58:42;;;;;;;14.23;9.05;;;;;;;3.91;68.24;97067.63;4976899;28;20109;-65
2021/12/05 11:01:09;;;;;;;18.38;8.60;;;;;;;4.03;67.66;97067.31;4992176;28;20492;-66
2021/12/05 11:03:35;;;;;;;15.65;10.07;;;;;;;4.12;67.82;97059.69;4968617;28;20030;-66
2021/12/05 11:06:00;;;;;;;17.92;12.10;;;;;;;4.24;67.71;97051.63;4974815;28;20668;-65
2021/12/05 11:08:35;;;;;;;16.67;11.07;;;;;;;4.40;66.29;97060.50;4979429;28;20465;-66
2021/12/05 11:11:15;;;;;;;17.73;11.30;;;;;;;4.52;66.50;97058.53;4978804;28;20377;-65
2021/12/05 11:13:44;;;;;;;17.25;11.02;;;;;;;4.59;66.59;97047.50;4974063;28;20092;-65
2021/12/05 11:16:31;;;;;;;15.75;11.13;;;;;;;4.63;67.66;97048.84;4981970;28;20034;-65
2021/12/05 11:18:56;;;;;;;17.65;11.25;;;;;;;4.65;67.52;97042.75;4980613;28;20345;-65
2021/12/05 11:21:34;;;;;;;17.50;11.52;;;;;;;4.70;66.90;97040.53;4980444;28;20035;-66
2021/12/05 11:24:07;;;;;;;18.88;11.73;;;;;;;4.72;68.44;97023.19;4981555;28;20027;-66
2021/12/05 11:26:36;;;;;;;17.50;11.23;;;;;;;4.69;67.46;97011.41;4976455;28;20504;-65
2021/12/05 11:29:01;;;;;;;17.08;11.52;;;;;;;4.86;67.12;97024.44;4979669;28;20171;-66
2021/12/05 11:31:29;;;;;;;16.77;11.52;;;;;;;4.86;66.05;97009.78;4964674;28;20828;-66
2021/12/05 11:33:56;;;;;;;17.65;11.48;;;;;;;4.93;67.11;97022.91;4981801;28;20026;-65
2021/12/05 11:36:23;;;;;;;18.00;11.57;;;;;;;4.90;66.88;97008.53;4967803;28;20038;-65
2021/12/05 11:38:49;;;;;;;15.52;11.15;;;;;;;4.96;67.26;97012.28;4978242;28;20053;-65
2021/12/05 11:41:20;;;;;;;15.00;11.02;;;;;;;5.07;67.65;96996.59;4981669;28;20130;-66
2021/12/05 11:43:45;;;;;;;15.10;11.50;;;;;;;5.10;66.06;96995.50;4978812;28;20034;-65
2021/12/05 11:46:31;;;;;;;17.60;11.57;;;;;;;5.06;65.15;96983.88;4980625;28;20030;-65
2021/12/05 11:49:05;;;;;;;19.55;11.88;;;;;;;5.14;65.75;96992.47;4975682;28;20748;-66
2021/12/05 11:51:52;;;;;;;16.85;10.48;;;;;;;5.20;62.86;96986.72;5012782;28;20095;-66
2021/12/05 11:54:38;;;;;;;17.20;10.63;;;;;;;5.18;63.19;96973.19;4980969;28;20034;-65
2021/12/05 11:57:14;;;;;;;16.73;10.65;;;;;;;5.15;64.25;96976.06;5010891;28;20030;-65
2021/12/05 11:59:45;;;;;;;14.75;10.00;;;;;;;5.22;63.77;96953.06;4976830;28;20025;-65
2021/12/05 12:02:16;;;;;;;14.13;8.30;;;;;;;5.01;64.75;96915.56;4980890;28;20062;-66
2021/12/05 12:05:06;;;;;;;14.05;8.85;;;;;;;5.29;63.10;96961.00;4979535;28;20074;-65
2021/12/05 12:07:48;;;;;;;12.88;8.15;;;;;;;5.11;64.32;96915.47;4980615;28;20954;-65
2021/12/05 12:10:24;;;;;;;11.40;7.90;;;;;;;5.43;63.42;96957.06;4972896;28;20429;-66
2021/12/05 12:13:25;;;;;;;15.38;7.75;;;;;;;5.58;62.09;96956.34;4978658;28;20030;-65
2021/12/05 12:15:58;;;;;;;10.70;6.90;;;;;;;5.55;59.84;96937.78;4979272;28;20096;-65
2021/12/05 12:18:29;;;;;;;9.98;6.53;;;;;;;5.60;58.78;96938.13;4975463;28;20497;-65
2021/12/05 12:20:56;;;;;;;10.23;6.35;;;;;;;5.59;58.59;96942.47;4975701;28;20121;-66
2021/12/05 12:23:22;;;;;;;10.60;6.78;;;;;;;5.49;59.20;96944.34;4981945;28;20026;-65
2021/12/05 12:25:51;;;;;;;10.18;6.82;;;;;;;5.51;60.67;96932.13;4957322;28;20030;-65
2021/12/05 12:28:18;;;;;;;12.27;7.15;;;;;;;5.48;62.31;96936.78;4979254;28;20108;-66
2021/12/05 12:30:58;;;;;;;10.02;7.13;;;;;;;5.53;63.06;96930.22;4996917;28;20062;-65
2021/12/05 12:33:29;;;;;;;11.80;6.60;;;;;;;5.62;63.71;96928.44;4974895;28;20073;-65
2021/12/05 12:35:55;;;;;;;11.13;7.18;;;;;;;5.42;64.25;96891.81;4980239;28;20065;-65
2021/12/05 12:38:32;;;;;;;10.63;6.97;;;;;;;5.59;65.11;96921.84;4976038;28;20042;-66
2021/12/05 12:41:23;;;;;;;10.15;7.20;;;;;;;5.47;66.35;96881.03;4993308;28;20114;-65
2021/12/05 12:44:04;;;;;;;11.25;7.07;;;;;;;5.65;66.50;96907.53;4976685;28;20117;-65
2021/12/05 12:46:48;;;;;;;11.25;7.43;;;;;;;5.63;67.40;96908.66;4973326;28;20026;-66
2021/12/05 12:49:14;;;;;;;10.50;6.97;;;;;;;5.67;67.90;96909.94;4981287;28;20038;-65
2021/12/05 12:51:41;;;;;;;9.82;6.30;;;;;;;5.74;65.99;96910.94;4981919;28;20038;-65
2021/12/05 12:54:14;;;;;;;9.77;5.68;;;;;;;6.00;61.73;96908.31;4977821;28;20034;-65
2021/12/05 12:56:42;;;;;;;7.28;3.13;;;;;;;6.59;50.32;96908.25;4980238;28;20034;-63
2021/12/05 12:59:14;;;;;;;5.68;2.58;;;;;;;7.19;46.60;96904.50;4995652;28;20417;-63
2021/12/05 13:04:37;;;;;;;7.45;3.17;;;;;;;7.49;44.58;96890.00;4976549;28;20054;-62
2021/12/05 13:10:00;;;;;;;5.30;2.40;;;;;;;7.69;44.22;96899.97;4994019;28;20594;-64
2021/12/05 13:10:11;;;;;;;5.53;2.53;;;;;;;7.94;41.50;96895.47;4977152;28;20101;-63
2021/12/05 13:12:40;;;;;;;5.85;3.00;;;;;;;8.02;42.87;96903.19;4960846;28;20109;-64
2021/12/05 13:15:09;;;;;;;5.72;2.53;;;;;;;7.82;41.61;96848.47;4975076;28;20440;-62
2021/12/05 13:17:40;;;;;;;5.00;2.58;;;;;;;8.22;40.85;96892.41;4978481;28;20121;-62
2021/12/05 13:20:07;;;;;;;5.38;2.65;;;;;;;7.95;40.95;96853.06;4958568;28;20707;-63
2021/12/05 13:22:33;;;;;;;4.82;2.25;;;;;;;8.28;40.55;96895.09;4975339;28;20038;-63
2021/12/05 13:25:06;;;;;;;4.80;2.00;;;;;;;8.37;38.36;96887.28;4958300;28;20030;-64
2021/12/05 13:27:32;;;;;;;5.30;2.20;;;;;;;8.41;37.70;96889.34;4975495;28;20036;-63
2021/12/05 13:29:58;;;;;;;5.35;2.33;;;;;;;8.21;38.50;96832.06;4993931;28;20026;-63
2021/12/05 13:32:29;;;;;;;5.38;2.28;;;;;;;8.51;39.94;96883.19;4991938;28;20030;-63
2021/12/05 13:35:01;;;;;;;5.65;2.05;;;;;;;8.56;39.95;96886.03;4976587;28;20061;-63
2021/12/05 13:37:37;;;;;;;5.32;2.08;;;;;;;8.57;38.25;96883.28;4975651;28;20118;-62
2021/12/05 13:40:19;;;;;;;5.47;2.10;;;;;;;8.62;39.25;96893.13;4980525;28;20038;-62
2021/12/05 13:42:52;;;;;;;6.10;2.00;;;;;;;8.65;38.31;96882.38;4963511;28;20058;-63
2021/12/05 13:45:31;;;;;;;4.65;2.08;;;;;;;8.61;39.96;96888.91;4978203;28;20036;-63
2021/12/05 13:47:58;;;;;;;4.70;1.38;;;;;;;8.62;42.97;96886.16;4967623;28;20398;-64
2021/12/05 13:50:28;;;;;;;3.85;1.45;;;;;;;8.62;40.18;96883.56;4971319;28;20452;-61
2021/12/05 13:53:03;;;;;;;4.20;1.30;;;;;;;8.62;40.36;96880.16;4975304;28;20463;-62
2021/12/05 13:55:40;;;;;;;5.32;1.20;;;;;;;8.65;39.88;96884.97;4981601;28;20034;-61
2021/12/05 13:58:45;;;;;;;2.92;1.05;;;;;;;8.68;38.52;96889.03;4978062;28;20027;-62
2021/12/05 14:01:22;;;;;;;3.47;1.20;;;;;;;8.73;37.12;96890.13;4972624;28;20034;-61
2021/12/05 14:04:16;;;;;;;3.13;1.10;;;;;;;8.49;37.73;96851.44;4979589;28;20033;-62
2021/12/05 14:07:04;;;;;;;2.90;1.00;;;;;;;8.69;37.92;96885.44;4971476;28;20033;-61
2021/12/05 14:09:40;;;;;;;4.00;1.30;;;;;;;8.41;37.52;96857.47;4976181;28;20189;-62
2021/12/05 14:12:11;;;;;;;2.95;1.02;;;;;;;8.59;41.11;96894.25;4983515;28;20034;-61
2021/12/05 14:15:00;;;;;;;4.40;1.40;;;;;;;8.48;41.57;96892.09;4969275;28;20089;-63
2021/12/05 14:17:35;;;;;;;3.88;1.00;;;;;;;8.36;42.25;96896.84;4973985;28;20037;-63
2021/12/05 14:20:08;;;;;;;3.25;1.15;;;;;;;8.40;39.41;96894.72;4990426;28;20513;-62
2021/12/05 14:22:36;;;;;;;3.42;1.30;;;;;;;8.43;43.06;96900.38;4973502;28;20381;-62
2021/12/05 14:25:16;;;;;;;3.30;1.10;;;;;;;8.17;42.89;96851.47;4963167;28;20035;-63
2021/12/05 14:27:45;;;;;;;2.95;0.90;;;;;;;8.49;40.39;96905.84;4973345;28;20137;-62
2021/12/05 14:30:14;;;;;;;2.80;0.90;;;;;;;8.37;41.29;96900.22;4975239;28;20050;-63
2021/12/05 14:32:44;;;;;;;2.85;0.90;;;;;;;8.25;42.74;96908.41;4977602;28;20543;-61
2021/12/05 14:35:14;;;;;;;;;;;;;;;8.18;43.39;96901.50;4977385;28;20026;-61
2021/12/05 14:37:43;;;;;;;3.72;1.30;;;;;;;7.89;42.86;96859.75;4993896;28;19913;-61
2021/12/05 14:40:10;;;;;;;3.70;1.23;;;;;;;7.86;42.90;96860.06;4977864;28;20033;-61
2021/12/05 14:42:39;;;;;;;4.00;1.17;;;;;;;8.06;41.83;96914.00;4976732;28;20100;-61
2021/12/05 14:45:21;;;;;;;2.70;0.90;;;;;;;8.11;38.88;96903.16;4974292;28;20038;-61
2021/12/05 14:47:48;;;;;;;2.60;0.80;;;;;;;7.96;40.62;96908.22;4968904;28;20031;-61
2021/12/05 14:50:21;;;;;;;2.95;0.80;;;;;;;7.70;42.77;96868.75;4992312;28;20048;-61
2021/12/05 14:52:52;;;;;;;3.63;1.13;;;;;;;8.04;44.02;96921.13;4973392;28;20026;-61
2021/12/05 14:55:18;;;;;;;3.20;1.15;;;;;;;7.65;40.70;96862.47;4950915;28;20026;-61
2021/12/05 14:57:50;;;;;;;3.35;1.20;;;;;;;7.95;38.81;96912.59;4985887;28;20058;-60
2021/12/05 15:00:24;;;;;;;3.78;0.90;;;;;;;7.81;39.02;96890.03;4975376;28;20041;-60
2021/12/05 15:02:59;;;;;;;3.28;1.10;;;;;;;7.65;39.62;96883.97;4975077;28;20888;-61
2021/12/05 15:05:24;;;;;;;4.22;1.05;;;;;;;7.86;39.65;96918.78;4977284;28;20039;-60
2021/12/05 15:07:59;;;;;;;3.80;1.25;;;;;;;7.80;39.65;96935.00;4975378;28;20117;-61
2021/12/05 15:10:24;;;;;;;3.35;1.20;;;;;;;7.75;40.75;96938.09;4991492;28;20088;-61
2021/12/05 15:12:53;;;;;;;4.53;1.10;;;;;;;7.63;37.91;96896.25;4979528;28;21172;-61
2021/12/05 15:15:18;;;;;;;3.00;1.08;;;;;;;7.74;36.34;96927.91;4971602;28;22896;-61
2021/12/05 15:17:44;;;;;;;4.22;1.30;;;;;;;7.68;36.82;96944.91;4985472;28;20033;-61
2021/12/05 15:20:13;;;;;;;4.85;2.03;;;;;;;7.72;35.69;96941.03;4979035;28;20041;-61
2021/12/05 15:22:41;;;;;;;4.65;1.67;;;;;;;7.66;36.00;96941.69;4981800;28;20029;-61
2021/12/05 15:25:12;;;;;;;4.65;1.20;;;;;;;7.60;33.33;96916.47;4996277;28;20026;-62
2021/12/05 15:27:38;;;;;;;3.67;0.90;;;;;;;7.83;33.47;96956.19;4978245;28;20069;-61
2021/12/05 15:30:08;;;;;;;2.28;0.80;;;;;;;7.80;35.55;96958.28;4975420;28;20061;-61
2021/12/05 15:32:33;;;;;;;3.25;0.80;;;;;;;7.76;37.35;96959.56;4976758;28;20106;-60
2021/12/05 15:35:02;;;;;;;1.65;0.60;;;;;;;7.82;35.84;96957.13;4979107;28;20101;-60
2021/12/05 15:37:28;;;;;;;1.98;0.60;;;;;;;7.68;34.85;96966.41;4977459;28;20091;-61
2021/12/05 15:39:55;;;;;;;2.15;0.70;;;;;;;7.51;35.97;96965.63;4994345;28;20034;-62
2021/12/05 15:42:21;;;;;;;2.72;0.73;;;;;;;7.38;38.32;96980.88;4978113;28;20030;-62
2021/12/05 15:44:48;;;;;;;2.85;1.00;;;;;;;7.22;38.83;96980.88;4978689;28;20045;-60
2021/12/05 15:47:17;;;;;;;4.00;0.90;;;;;;;7.08;39.71;96975.41;4992914;28;20034;-60
2021/12/05 15:49:54;;;;;;;3.85;1.00;;;;;;;7.06;38.37;96989.44;4974981;28;20037;-62
2021/12/05 15:52:41;;;;;;;4.65;1.05;;;;;;;7.01;36.13;96981.38;4970218;28;20066;-61
2021/12/05 15:55:30;;;;;;;2.78;0.95;;;;;;;6.91;39.48;96986.72;4979561;28;20041;-61
2021/12/05 15:58:19;;;;;;;4.25;1.15;;;;;;;6.45;42.26;96948.41;4963017;28;20050;-60
2021/12/05 16:00:52;;;;;;;4.72;1.40;;;;;;;6.70;43.36;96997.53;4962838;28;20125;-61
2021/12/05 16:03:23;;;;;;;8.48;1.60;;;;;;;6.50;43.40;97002.16;4962937;28;20022;-60
2021/12/05 16:05:58;;;;;;;8.70;1.48;;;;;;;6.38;45.00;97006.00;4970346;28;20429;-61
2021/12/05 16:08:27;;;;;;;6.97;2.20;;;;;;;6.30;45.19;97004.22;4954095;28;20406;-61
2021/12/05 16:10:59;;;;;;;8.98;3.85;;;;;;;6.16;45.82;97015.94;4959942;28;20026;-61
2021/12/05 16:13:33;;;;;;;6.30;3.45;;;;;;;6.09;46.53;97015.75;4965149;28;20110;-60
2021/12/05 16:16:09;;;;;;;8.93;3.20;;;;;;;5.92;46.88;97019.19;4964246;28;21751;-61
2021/12/05 16:18:36;;;;;;;9.63;3.25;;;;;;;5.53;47.45;96986.94;4958719;28;20042;-61
2021/12/05 16:21:06;;;;;;;9.98;5.03;;;;;;;5.48;48.41;97029.59;4969702;28;20334;-60
2021/12/05 16:23:35;;;;;;;;;;;;;;;5.40;48.15;97035.47;4965644;28;20034;-61
2021/12/05 16:26:05;;;;;;;11.60;5.70;;;;;;;5.42;48.92;97031.00;4969055;28;19934;-61
2021/12/05 16:28:35;;;;;;;;;;;;;;;5.38;49.44;97039.97;4969519;28;20037;-61
2021/12/05 16:31:17;;;;;;;14.15;6.18;;;;;;;5.26;50.58;97029.13;4973174;28;20040;-61
2021/12/05 16:33:55;;;;;;;10.93;4.13;;;;;;;5.20;49.90;97048.56;4971827;28;20038;-61
2021/12/05 16:36:21;;;;;;;10.73;3.60;;;;;;;5.00;50.08;97029.06;4971695;28;20026;-60
2021/12/05 16:38:51;;;;;;;7.78;3.05;;;;;;;5.04;50.98;97051.00;4988499;28;20038;-62
2021/12/05 16:41:28;;;;;;;8.77;2.65;;;;;;;5.13;50.91;97057.00;4971104;28;20428;-61
2021/12/05 16:44:05;;;;;;;8.57;3.10;;;;;;;4.97;50.78;97047.41;5008553;28;20045;-61
2021/12/05 16:46:36;;;;;;;8.57;3.65;;;;;;;4.72;51.43;97016.25;4979198;28;20117;-61
2021/12/05 16:49:05;;;;;;;8.38;2.92;;;;;;;4.95;52.20;97072.50;4979119;28;20035;-61
2021/12/05 16:51:35;;;;;;;6.75;3.20;;;;;;;4.70;51.87;97077.41;4966716;28;20141;-60
2021/12/05 16:54:18;;;;;;;9.73;4.30;;;;;;;4.75;52.19;97080.34;4970306;28;20037;-61
2021/12/05 16:56:49;;;;;;;9.75;5.13;;;;;;;4.46;53.26;97069.41;4968398;28;20027;-60
2021/12/05 16:59:26;;;;;;;10.30;5.22;;;;;;;4.55;52.75;97082.22;4982999;28;20157;-61
2021/12/05 17:02:08;;;;;;;9.38;4.35;;;;;;;4.32;52.24;97038.03;4979391;28;20022;-60
2021/12/05 17:04:44;;;;;;;9.93;3.92;;;;;;;3.98;53.00;97048.91;4976553;28;20120;-61
2021/12/05 17:07:14;;;;;;;9.85;3.83;;;;;;;4.42;52.47;97087.72;4985517;28;20038;-60
2021/12/05 17:09:40;;;;;;;11.75;4.43;;;;;;;4.45;53.30;97096.91;4984660;28;20022;-61
2021/12/05 17:12:24;;;;;;;9.65;4.20;;;;;;;4.09;54.10;97049.66;4980268;28;20536;-61
2021/12/05 17:14:50;;;;;;;8.13;3.72;;;;;;;4.41;53.62;97100.72;4989662;28;20607;-60
2021/12/05 17:17:31;;;;;;;7.45;3.08;;;;;;;4.12;53.90;97096.50;4970665;28;20042;-61
2021/12/05 17:19:57;;;;;;;7.82;3.30;;;;;;;4.11;55.21;97097.47;4985882;28;20466;-61
2021/12/05 17:22:22;;;;;;;11.75;4.93;;;;;;;3.82;55.02;97100.13;4968309;28;20043;-60
2021/12/05 17:24:49;;;;;;;10.68;4.20;;;;;;;3.93;54.35;97107.66;4966414;28;20453;-61
2021/12/05 17:27:17;;;;;;;7.70;3.85;;;;;;;3.75;55.12;97063.88;4990921;28;20657;-61
2021/12/05 17:29:46;;;;;;;9.25;3.60;;;;;;;4.12;56.89;97113.72;4985958;28;20077;-61